Главная страница
METAR-TAF:

METAR-TAF

Аэропорты :

Му-и-Рана, Норвегия

широта: 66-22N, долгота: 014-18E, высота над уровнем моря: 7 м

Текущие метеонаблюдения

Эта сводка был подготовлена 5 часа и 2 минут назад, в 21:20 UTC
Ветер 2 Узел от северо-западный
Температура -18°C
Влажность 84%
Давление 1027 hPa
Видимость 10 км и более
Нет облачности ниже 1500 м, и нет кучево-дождевой облачности

METAR: ENRA 152120Z 31002KT CAVOK M18/M20 Q1027

Время: 03:22 (02:22 UTC)

Прогноз

Эта сводка был подготовлена 15 часа и 22 минут назад, в 11:00 UTC
Прогноз действительный с 15-го 12 UTC до 15-го 16 UTC
Ветер 3 Узел переменных направлений
Видимость 10 км и более
Нет облачности ниже 1500 м, и нет кучево-дождевой облачности

TAF: ENRA 151100Z 1512/1516 VRB03KT CAVOK

Метеонаблюдения и прогнозы для более 4000 аэропортов (сводки METAR и TAF).

Имеющиеся станции представлены на карте желтыми и красными точками.

Чтобы увидеть название станции, наведите на нее мышь.

Затем щелкните, чтобы увидеть метеонаблюдения и метеопрогнозы.

Управление картой: чтобы увеличить масштаб, щелкните зеленые кнопки с черным крестиком; чтобы уменьшить масштаб, щелкните зеленую кнопку с тире; для просмотра соседних карт щелкайте зеленые стрелки.


METAR-TAF: